Time;durP1;ratioP1;P1;durP2;ratioP2;P2;SDS_P1;SDS_P2;PMS_P1;PMS_P2;Temp;Humidity;BMP_temperature;BMP_pressure;BME280_temperature;BME280_humidity;BME280_pressure;Samples;Min_cycle;Max_cycle;Signal;HPM_P1;HPM_P2
2022/03/11 00:00:45;;;;;;;9.73;8.57;;;6.80;88.10;;;;;;5050109;28;20243;-61
2022/03/11 00:03:14;;;;;;;11.50;8.63;;;6.70;90.70;;;;;;5050127;28;20211;-61
2022/03/11 00:05:42;;;;;;;10.60;9.55;;;6.80;92.50;;;;;;5049884;28;20253;-61
2022/03/11 00:08:11;;;;;;;9.10;7.75;;;6.70;90.30;;;;;;5050650;28;20207;-61
2022/03/11 00:10:39;;;;;;;13.75;8.63;;;6.70;92.00;;;;;;5050253;28;20266;-61
2022/03/11 00:13:08;;;;;;;9.90;8.73;;;6.80;91.80;;;;;;5049078;28;20200;-61
2022/03/11 00:15:37;;;;;;;11.43;10.18;;;6.80;91.60;;;;;;5049724;28;20208;-60
2022/03/11 00:18:07;;;;;;;11.50;10.30;;;6.50;90.10;;;;;;5050960;28;20219;-61
2022/03/11 00:20:36;;;;;;;11.45;9.25;;;6.30;90.50;;;;;;5049659;28;20319;-61
2022/03/11 00:23:04;;;;;;;11.02;9.80;;;6.30;92.30;;;;;;5048527;28;20228;-61
2022/03/11 00:25:32;;;;;;;9.40;8.50;;;6.30;91.40;;;;;;5050243;28;20192;-61
2022/03/11 00:28:00;;;;;;;8.65;7.85;;;6.40;93.90;;;;;;5052266;28;20238;-60
2022/03/11 00:30:29;;;;;;;10.93;7.75;;;6.40;94.30;;;;;;5050984;28;20236;-61
2022/03/11 00:32:57;;;;;;;8.80;7.90;;;6.80;96.70;;;;;;5049657;28;20324;-62
2022/03/11 00:35:26;;;;;;;11.15;8.93;;;6.90;95.30;;;;;;5049774;28;20712;-60
2022/03/11 00:37:54;;;;;;;9.77;8.77;;;7.10;92.30;;;;;;5049580;28;20234;-60
2022/03/11 00:40:22;;;;;;;8.95;8.05;;;7.10;92.40;;;;;;5049615;28;20251;-60
2022/03/11 00:42:50;;;;;;;10.40;9.40;;;7.10;95.60;;;;;;5050212;28;20677;-61
2022/03/11 00:45:18;;;;;;;11.18;9.52;;;7.20;94.10;;;;;;5048819;28;20688;-61
2022/03/11 00:47:46;;;;;;;9.70;8.70;;;7.10;93.00;;;;;;5048834;28;20622;-60
2022/03/11 00:50:14;;;;;;;11.40;9.88;;;7.10;94.10;;;;;;5048281;28;20246;-60
2022/03/11 00:52:43;;;;;;;11.07;9.70;;;6.90;91.50;;;;;;5049371;28;20261;-60
2022/03/11 00:55:12;;;;;;;10.77;9.27;;;6.80;94.40;;;;;;5047950;28;20232;-61
2022/03/11 00:57:40;;;;;;;12.35;10.07;;;6.80;94.30;;;;;;5051677;28;20223;-61
2022/03/11 01:00:09;;;;;;;12.40;9.70;;;6.70;91.60;;;;;;5049316;28;20568;-61
2022/03/11 01:02:38;;;;;;;10.32;8.82;;;6.50;91.90;;;;;;5048501;28;20208;-61
2022/03/11 01:05:08;;;;;;;10.48;9.30;;;6.30;91.80;;;;;;5048835;28;20585;-61
2022/03/11 01:07:37;;;;;;;11.85;9.02;;;6.10;94.00;;;;;;5050416;28;20200;-61
2022/03/11 01:10:08;;;;;;;10.43;9.30;;;6.00;94.60;;;;;;5048890;28;20200;-61
2022/03/11 01:12:37;;;;;;;9.60;7.95;;;6.00;94.90;;;;;;5048974;28;20257;-61
2022/03/11 01:15:06;;;;;;;9.45;8.45;;;6.10;96.70;;;;;;5048715;28;20183;-61
2022/03/11 01:17:34;;;;;;;12.90;10.15;;;6.20;93.30;;;;;;5048717;28;20196;-62
2022/03/11 01:20:03;;;;;;;10.35;9.25;;;6.00;93.50;;;;;;5049330;28;20200;-60
2022/03/11 01:22:31;;;;;;;10.63;9.63;;;5.90;93.70;;;;;;5048272;28;20296;-60
2022/03/11 01:24:59;;;;;;;10.90;9.80;;;5.80;93.30;;;;;;5048878;28;20619;-61
2022/03/11 01:27:28;;;;;;;11.02;9.93;;;5.70;93.80;;;;;;5050792;28;20196;-60
2022/03/11 01:29:56;;;;;;;11.38;10.30;;;5.60;96.50;;;;;;5050948;28;20258;-61
2022/03/11 01:32:24;;;;;;;9.77;8.80;;;5.60;94.20;;;;;;5047502;28;20795;-61
2022/03/11 01:34:52;;;;;;;9.63;8.55;;;5.70;98.10;;;;;;5048807;28;20231;-60
2022/03/11 01:37:20;;;;;;;11.35;10.25;;;5.70;97.20;;;;;;5048561;28;20231;-61
2022/03/11 01:39:48;;;;;;;12.50;10.15;;;5.60;95.70;;;;;;5048259;28;20204;-61
2022/03/11 01:42:16;;;;;;;12.00;10.60;;;5.50;96.60;;;;;;5049819;28;20270;-61
2022/03/11 01:44:45;;;;;;;10.82;9.48;;;5.60;95.60;;;;;;5048956;28;20570;-61
2022/03/11 01:47:13;;;;;;;13.30;10.70;;;5.40;95.30;;;;;;5050444;28;20283;-62
2022/03/11 01:49:41;;;;;;;12.00;10.75;;;5.40;97.30;;;;;;5047984;28;20200;-61
2022/03/11 01:52:09;;;;;;;12.48;11.07;;;5.50;97.30;;;;;;5047397;28;20224;-61
2022/03/11 01:54:37;;;;;;;10.93;9.82;;;5.50;97.00;;;;;;5047938;28;20668;-61
2022/03/11 01:57:05;;;;;;;11.52;10.43;;;5.50;96.70;;;;;;5050818;28;20586;-61
2022/03/11 01:59:33;;;;;;;12.73;11.25;;;5.40;96.20;;;;;;5050211;28;20239;-61
2022/03/11 02:02:02;;;;;;;12.80;11.15;;;5.30;95.70;;;;;;5047390;28;20251;-61
2022/03/11 02:04:30;;;;;;;11.30;10.20;;;5.30;97.60;;;;;;5047795;28;20200;-60
2022/03/11 02:06:58;;;;;;;12.70;10.02;;;5.30;96.30;;;;;;5048139;28;20303;-61
2022/03/11 02:09:27;;;;;;;13.20;11.27;;;5.10;98.60;;;;;;5048076;28;20200;-61
2022/03/11 02:11:55;;;;;;;13.60;10.75;;;5.10;97.20;;;;;;5047129;28;20295;-61
2022/03/11 02:14:23;;;;;;;13.40;11.50;;;5.00;97.30;;;;;;5049181;28;20273;-60
2022/03/11 02:16:51;;;;;;;12.82;11.57;;;5.00;99.50;;;;;;5048460;28;20188;-61
2022/03/11 02:19:21;;;;;;;13.95;12.55;;;4.90;98.00;;;;;;5047287;28;20205;-60
2022/03/11 02:21:50;;;;;;;13.55;12.25;;;4.80;98.00;;;;;;5047486;28;20307;-60
2022/03/11 02:24:20;;;;;;;13.02;11.73;;;4.70;98.10;;;;;;5047294;28;20844;-61
2022/03/11 02:26:47;;;;;;;12.27;11.18;;;4.80;99.90;;;;;;5047305;28;20246;-61
2022/03/11 02:29:15;;;;;;;13.15;11.65;;;4.80;99.20;;;;;;5047094;28;20220;-61
2022/03/11 02:31:43;;;;;;;12.35;11.13;;;4.80;98.80;;;;;;5047012;28;20263;-61
2022/03/11 02:34:11;;;;;;;13.88;12.40;;;4.70;98.90;;;;;;5047038;28;20200;-60
2022/03/11 02:36:39;;;;;;;13.88;12.35;;;4.70;99.90;;;;;;5047151;28;20911;-60
2022/03/11 02:39:07;;;;;;;14.70;12.73;;;4.70;99.90;;;;;;5047393;28;20232;-60
2022/03/11 02:41:41;;;;;;;15.50;13.90;;;4.90;99.60;;;;;;5048042;28;20220;-61
2022/03/11 02:44:08;;;;;;;13.88;12.52;;;4.90;99.90;;;;;;5047323;28;20224;-62
2022/03/11 02:46:36;;;;;;;14.23;12.80;;;5.10;99.90;;;;;;5047111;28;20295;-61
2022/03/11 02:49:05;;;;;;;14.45;12.95;;;5.00;99.50;;;;;;5046883;28;20559;-62
2022/03/11 02:51:32;;;;;;;16.10;14.43;;;4.90;99.90;;;;;;5047054;28;20307;-61
2022/03/11 02:54:00;;;;;;;15.27;13.68;;;4.90;99.90;;;;;;5046833;28;20289;-60
2022/03/11 02:56:28;;;;;;;17.25;15.35;;;4.80;99.90;;;;;;5048363;28;20200;-60
2022/03/11 02:58:57;;;;;;;14.82;13.30;;;4.70;99.90;;;;;;5046931;28;20246;-63
2022/03/11 03:01:25;;;;;;;15.68;14.00;;;4.80;99.90;;;;;;5047330;28;20262;-60
2022/03/11 03:03:53;;;;;;;17.30;15.63;;;4.70;99.90;;;;;;5047316;28;20200;-60
2022/03/11 03:06:22;;;;;;;16.88;14.45;;;4.70;99.90;;;;;;5046845;28;20220;-63
2022/03/11 03:08:49;;;;;;;16.27;14.57;;;4.70;99.90;;;;;;5046134;28;20711;-62
2022/03/11 03:11:18;;;;;;;19.73;16.10;;;4.60;99.90;;;;;;5046189;28;20242;-63
2022/03/11 03:13:46;;;;;;;16.48;14.77;;;4.70;99.90;;;;;;5047098;28;20247;-63
2022/03/11 03:16:15;;;;;;;17.73;14.90;;;4.60;99.90;;;;;;5046359;28;20227;-62
2022/03/11 03:18:43;;;;;;;16.40;14.80;;;4.50;99.90;;;;;;5045712;28;20696;-62
2022/03/11 03:21:11;;;;;;;16.48;14.88;;;4.50;99.90;;;;;;5046871;28;20247;-62
2022/03/11 03:23:39;;;;;;;19.27;17.20;;;4.40;99.90;;;;;;5046119;28;20695;-60
2022/03/11 03:26:07;;;;;;;18.92;16.27;;;4.40;99.90;;;;;;5046780;28;20231;-64
2022/03/11 03:28:35;;;;;;;16.73;15.02;;;4.30;99.90;;;;;;5046485;28;20279;-62
2022/03/11 03:31:03;;;;;;;17.83;16.05;;;4.40;99.90;;;;;;5046800;28;20227;-63
2022/03/11 03:33:32;;;;;;;19.73;17.77;;;4.40;99.90;;;;;;5050722;28;20568;-63
2022/03/11 03:36:00;;;;;;;19.10;17.00;;;4.40;99.90;;;;;;5050957;28;20673;-63
2022/03/11 03:38:28;;;;;;;20.27;17.17;;;4.40;99.90;;;;;;5046582;28;20246;-61
2022/03/11 03:40:55;;;;;;;20.35;18.15;;;4.30;99.90;;;;;;5047508;28;20618;-61
2022/03/11 03:43:23;;;;;;;19.17;16.98;;;4.30;99.90;;;;;;5046887;28;20274;-60
2022/03/11 03:45:51;;;;;;;21.10;19.00;;;4.20;99.90;;;;;;5044540;28;20628;-61
2022/03/11 03:48:19;;;;;;;22.20;19.90;;;4.30;99.90;;;;;;5046411;28;20200;-60
2022/03/11 03:50:48;;;;;;;24.13;21.52;;;4.20;99.90;;;;;;5048373;28;20212;-60
2022/03/11 03:53:16;;;;;;;22.45;20.25;;;4.20;99.90;;;;;;5050069;28;20289;-61
2022/03/11 03:55:44;;;;;;;22.67;20.48;;;4.20;99.90;;;;;;5049075;28;20628;-61
2022/03/11 03:58:12;;;;;;;22.42;20.23;;;4.30;99.90;;;;;;5045963;28;20232;-60
2022/03/11 04:00:40;;;;;;;24.20;21.52;;;4.30;99.90;;;;;;5047049;28;20228;-60
2022/03/11 04:03:08;;;;;;;22.73;20.30;;;4.30;99.90;;;;;;5046326;28;20858;-60
2022/03/11 04:05:37;;;;;;;21.38;19.30;;;4.20;99.90;;;;;;5047139;28;20291;-61
2022/03/11 04:08:07;;;;;;;22.27;19.98;;;4.30;99.90;;;;;;5048162;28;20300;-61
2022/03/11 04:10:35;;;;;;;24.08;21.73;;;4.60;99.90;;;;;;5046585;28;20266;-61
2022/03/11 04:13:03;;;;;;;23.50;20.60;;;4.60;99.90;;;;;;5045957;28;20207;-61
2022/03/11 04:15:32;;;;;;;22.90;19.42;;;4.50;99.90;;;;;;5048422;28;20282;-61
2022/03/11 04:18:01;;;;;;;23.30;20.80;;;4.50;99.90;;;;;;5044892;28;20196;-60
2022/03/11 04:20:29;;;;;;;22.13;19.83;;;4.50;99.90;;;;;;5049969;28;20224;-61
2022/03/11 04:22:56;;;;;;;23.40;20.45;;;4.40;99.90;;;;;;5049531;28;20248;-61
2022/03/11 04:25:26;;;;;;;21.42;19.42;;;4.40;99.90;;;;;;5049867;28;20215;-61
2022/03/11 04:27:53;;;;;;;23.65;21.35;;;4.40;99.90;;;;;;5049900;28;20204;-62
2022/03/11 04:30:21;;;;;;;22.10;19.90;;;4.30;99.90;;;;;;5049308;28;20231;-62
2022/03/11 04:32:49;;;;;;;22.38;20.10;;;4.40;99.90;;;;;;5050213;28;20242;-62
2022/03/11 04:35:17;;;;;;;22.00;19.90;;;4.30;99.90;;;;;;5053975;28;20290;-61
2022/03/11 04:37:45;;;;;;;21.30;19.25;;;4.30;99.90;;;;;;5053383;28;20220;-62
2022/03/11 04:40:13;;;;;;;23.17;20.77;;;4.20;99.90;;;;;;5053542;28;20204;-61
2022/03/11 04:42:42;;;;;;;22.25;20.05;;;4.20;99.90;;;;;;5052871;28;20244;-61
2022/03/11 04:45:11;;;;;;;23.35;21.05;;;4.20;99.90;;;;;;5052917;28;20898;-61
2022/03/11 04:47:38;;;;;;;22.80;20.60;;;4.10;99.90;;;;;;5053267;28;20196;-61
2022/03/11 04:50:07;;;;;;;22.13;19.98;;;4.00;99.90;;;;;;5053214;28;20281;-60
2022/03/11 04:52:35;;;;;;;21.85;19.80;;;3.90;99.90;;;;;;5048441;28;20227;-61
2022/03/11 04:55:04;;;;;;;22.17;20.08;;;3.90;99.90;;;;;;5052907;28;21039;-62
2022/03/11 04:57:35;;;;;;;22.90;20.65;;;3.70;99.90;;;;;;5053263;28;20644;-61
2022/03/11 05:00:05;;;;;;;21.98;19.85;;;3.80;99.90;;;;;;5052835;28;20306;-61
2022/03/11 05:02:33;;;;;;;22.83;20.55;;;3.70;99.90;;;;;;5052619;28;20208;-62
2022/03/11 05:05:04;;;;;;;26.65;22.02;;;3.80;99.90;;;;;;5053442;28;20212;-62
2022/03/11 05:07:32;;;;;;;24.17;21.67;;;3.70;99.90;;;;;;5052687;28;20200;-62
2022/03/11 05:10:01;;;;;;;23.08;20.73;;;3.70;99.90;;;;;;5053344;28;20238;-61
2022/03/11 05:12:29;;;;;;;22.05;18.20;;;3.90;99.90;;;;;;5051951;28;20235;-62
2022/03/11 05:14:58;;;;;;;22.98;20.58;;;4.00;99.90;;;;;;5051832;28;20287;-62
2022/03/11 05:17:27;;;;;;;20.73;18.88;;;4.00;99.90;;;;;;5052868;28;20219;-63
2022/03/11 05:19:55;;;;;;;23.90;21.50;;;3.90;99.90;;;;;;5052052;28;20204;-62
2022/03/11 05:22:23;;;;;;;21.77;19.77;;;3.90;99.90;;;;;;5051036;28;20240;-63
2022/03/11 05:24:51;;;;;;;21.88;19.77;;;3.80;99.90;;;;;;5053078;28;20231;-62
2022/03/11 05:27:19;;;;;;;23.92;21.27;;;3.70;99.90;;;;;;5053166;28;20203;-62
2022/03/11 05:29:47;;;;;;;23.20;21.00;;;3.60;99.90;;;;;;5052990;28;20298;-61
2022/03/11 05:32:16;;;;;;;21.05;19.15;;;3.70;99.90;;;;;;5052524;28;20282;-61
2022/03/11 05:34:45;;;;;;;21.77;19.67;;;3.50;99.90;;;;;;5052930;28;20282;-63
2022/03/11 05:37:15;;;;;;;21.48;19.38;;;3.50;99.90;;;;;;5040758;28;20290;-62
2022/03/11 05:39:43;;;;;;;23.60;20.70;;;3.40;99.90;;;;;;5041826;28;20603;-62
2022/03/11 05:42:11;;;;;;;22.48;20.30;;;3.40;99.90;;;;;;5052427;28;20251;-61
2022/03/11 05:44:39;;;;;;;20.75;18.67;;;3.40;99.90;;;;;;5052723;28;20303;-61
2022/03/11 05:47:09;;;;;;;19.20;17.20;;;3.60;99.90;;;;;;5049342;28;20204;-61
2022/03/11 05:49:37;;;;;;;22.55;20.35;;;3.90;99.90;;;;;;5051417;28;20196;-62
2022/03/11 05:52:07;;;;;;;22.27;20.15;;;4.00;99.90;;;;;;5052350;28;20247;-62
2022/03/11 05:54:34;;;;;;;20.73;18.63;;;3.80;99.90;;;;;;5051886;28;20204;-62
2022/03/11 05:57:03;;;;;;;20.70;18.80;;;3.90;99.90;;;;;;5052266;28;20723;-62
2022/03/11 05:59:32;;;;;;;21.95;19.75;;;3.80;99.90;;;;;;5045943;28;20247;-63
2022/03/11 06:02:00;;;;;;;22.20;18.98;;;3.80;99.90;;;;;;5039837;28;20310;-62
2022/03/11 06:04:32;;;;;;;18.98;17.15;;;3.80;99.90;;;;;;5042196;28;20311;-61
2022/03/11 06:07:00;;;;;;;20.27;18.23;;;3.70;99.90;;;;;;5046732;28;20287;-62
2022/03/11 06:09:30;;;;;;;20.55;18.50;;;3.80;99.90;;;;;;5046283;28;20261;-61
2022/03/11 06:11:57;;;;;;;20.50;18.35;;;3.70;99.90;;;;;;5046449;28;20235;-61
2022/03/11 06:14:26;;;;;;;19.45;17.55;;;3.60;99.90;;;;;;5046104;28;20211;-62
2022/03/11 06:16:54;;;;;;;20.15;18.15;;;3.60;99.90;;;;;;5046514;28;20964;-63
2022/03/11 06:19:22;;;;;;;19.80;17.80;;;3.80;99.90;;;;;;5045508;28;20203;-61
2022/03/11 06:21:50;;;;;;;19.92;18.00;;;3.70;99.90;;;;;;5046163;28;20247;-61
2022/03/11 06:24:18;;;;;;;18.42;16.63;;;3.70;99.90;;;;;;5043827;28;20793;-62
2022/03/11 06:26:47;;;;;;;21.63;16.98;;;3.80;99.90;;;;;;5048122;28;20807;-62
2022/03/11 06:29:15;;;;;;;18.25;16.55;;;3.90;99.90;;;;;;5045372;28;20208;-62
2022/03/11 06:31:43;;;;;;;19.05;17.15;;;4.10;99.90;;;;;;5039344;28;20301;-62
2022/03/11 06:34:11;;;;;;;20.20;17.70;;;4.10;99.90;;;;;;5045909;28;20299;-62
2022/03/11 06:36:38;;;;;;;18.13;16.33;;;4.10;99.40;;;;;;5045957;28;20797;-62
2022/03/11 06:39:07;;;;;;;18.15;16.35;;;4.10;99.90;;;;;;5046099;28;20235;-62
2022/03/11 06:41:35;;;;;;;18.95;16.27;;;4.30;99.90;;;;;;5045785;28;20240;-62
2022/03/11 06:44:05;;;;;;;19.27;17.38;;;4.20;98.90;;;;;;5045810;28;20216;-62
2022/03/11 06:46:32;;;;;;;20.77;16.50;;;4.10;98.20;;;;;;5043583;28;20238;-62
2022/03/11 06:49:00;;;;;;;18.38;16.48;;;4.10;98.20;;;;;;5046009;28;20290;-61
2022/03/11 06:51:28;;;;;;;18.60;16.13;;;4.00;98.00;;;;;;5044979;28;20219;-61
2022/03/11 06:54:04;;;;;;;16.92;15.23;;;4.00;98.10;;;;;;5045831;28;20676;-62
2022/03/11 06:56:32;;;;;;;18.88;16.95;;;4.20;99.90;;;;;;5042416;28;20239;-62
2022/03/11 06:59:00;;;;;;;17.33;15.63;;;4.30;98.80;;;;;;5045233;28;20283;-62
2022/03/11 07:01:29;;;;;;;17.45;15.77;;;4.50;97.70;;;;;;5045217;28;20259;-62
2022/03/11 07:03:58;;;;;;;16.88;15.10;;;4.40;95.80;;;;;;5044814;28;20242;-63
2022/03/11 07:06:26;;;;;;;15.45;13.57;;;4.50;97.30;;;;;;5043014;28;20269;-62
2022/03/11 07:08:53;;;;;;;16.92;15.32;;;4.50;97.10;;;;;;5045877;28;20295;-62
2022/03/11 07:11:21;;;;;;;18.90;16.80;;;4.50;95.70;;;;;;5043237;28;20303;-62
2022/03/11 07:13:49;;;;;;;16.27;14.70;;;4.50;95.50;;;;;;5039246;28;20199;-62
2022/03/11 07:16:17;;;;;;;17.25;15.55;;;4.60;95.60;;;;;;5044322;28;20203;-62
2022/03/11 07:18:46;;;;;;;15.07;13.63;;;4.50;94.70;;;;;;5042173;28;20254;-62
2022/03/11 07:21:14;;;;;;;17.73;15.93;;;4.60;96.90;;;;;;5045106;28;20315;-62
2022/03/11 07:23:42;;;;;;;15.65;14.05;;;4.60;93.90;;;;;;5045025;28;20262;-62
2022/03/11 07:26:10;;;;;;;14.52;13.13;;;4.60;95.00;;;;;;5044568;28;20665;-62
2022/03/11 07:28:38;;;;;;;15.32;13.93;;;4.80;95.50;;;;;;5045290;28;20231;-62
2022/03/11 07:31:06;;;;;;;16.17;14.32;;;4.90;93.80;;;;;;5045279;28;20253;-62
2022/03/11 07:33:34;;;;;;;15.80;13.38;;;5.00;94.80;;;;;;5044520;28;20191;-63
2022/03/11 07:36:03;;;;;;;15.60;14.10;;;5.10;93.80;;;;;;5045557;28;20294;-62
2022/03/11 07:38:31;;;;;;;15.70;13.80;;;5.20;93.60;;;;;;5045134;28;20303;-62
2022/03/11 07:40:59;;;;;;;16.33;13.32;;;5.30;92.60;;;;;;5045327;28;20236;-62
2022/03/11 07:43:27;;;;;;;15.07;13.57;;;5.20;92.70;;;;;;5044624;28;20212;-62
2022/03/11 07:45:55;;;;;;;16.50;12.95;;;5.30;92.40;;;;;;5044781;28;20220;-62
2022/03/11 07:48:23;;;;;;;15.48;12.85;;;5.40;91.80;;;;;;5044727;28;20230;-61
2022/03/11 07:50:51;;;;;;;15.75;14.07;;;5.50;91.70;;;;;;5044957;28;20310;-62
2022/03/11 07:53:21;;;;;;;14.57;13.07;;;5.50;91.40;;;;;;5043589;28;20224;-62
2022/03/11 07:55:48;;;;;;;15.43;13.88;;;5.70;91.50;;;;;;5044380;28;20188;-62
2022/03/11 07:58:17;;;;;;;14.90;13.40;;;5.70;91.40;;;;;;5044375;28;20287;-62
2022/03/11 08:00:45;;;;;;;16.48;13.13;;;5.80;91.00;;;;;;5044352;28;20258;-62
2022/03/11 08:03:17;;;;;;;15.23;13.10;;;6.00;90.70;;;;;;5044452;28;20227;-62
2022/03/11 08:05:46;;;;;;;13.40;12.20;;;6.10;91.60;;;;;;5042851;28;20234;-62
2022/03/11 08:08:14;;;;;;;12.50;11.20;;;6.20;90.20;;;;;;5042709;28;20238;-61
2022/03/11 08:10:43;;;;;;;12.88;11.55;;;6.30;89.30;;;;;;5048711;28;20709;-62
2022/03/11 08:13:31;;;;;;;14.73;12.60;;;6.20;89.10;;;;;;5048842;28;20219;-63
2022/03/11 08:15:59;;;;;;;12.15;10.95;;;6.30;88.70;;;;;;5047420;28;20291;-63
2022/03/11 08:18:28;;;;;;;15.57;11.50;;;6.40;88.20;;;;;;5048613;28;20666;-63
2022/03/11 08:20:56;;;;;;;13.30;11.93;;;6.50;87.80;;;;;;5047344;28;20239;-63
2022/03/11 08:23:24;;;;;;;12.85;11.55;;;6.60;86.50;;;;;;5048588;28;20238;-63
2022/03/11 08:25:53;;;;;;;12.88;11.57;;;6.70;86.10;;;;;;5045174;28;20251;-62
2022/03/11 08:28:22;;;;;;;13.70;12.20;;;6.70;85.70;;;;;;5042392;28;20295;-62
2022/03/11 08:30:50;;;;;;;12.13;10.82;;;6.90;85.90;;;;;;5044454;28;20737;-63
2022/03/11 08:33:20;;;;;;;14.23;12.15;;;7.00;84.90;;;;;;5048028;28;20641;-63
2022/03/11 08:36:08;;;;;;;17.10;12.50;;;7.30;85.90;;;;;;5048516;28;20200;-62
2022/03/11 08:38:38;;;;;;;16.15;12.10;;;7.30;84.00;;;;;;5047933;28;20629;-63
2022/03/11 08:41:08;;;;;;;12.35;11.05;;;7.50;84.20;;;;;;5047189;28;20781;-63
2022/03/11 08:43:38;;;;;;;11.82;10.57;;;7.50;82.90;;;;;;5044408;28;20630;-64
2022/03/11 08:46:07;;;;;;;15.38;12.25;;;7.60;84.60;;;;;;5046596;28;20948;-63
2022/03/11 08:48:35;;;;;;;11.77;10.55;;;7.80;81.80;;;;;;5053101;28;20202;-63
2022/03/11 08:51:03;;;;;;;13.65;12.27;;;7.70;81.70;;;;;;5047859;28;20244;-63
2022/03/11 08:53:31;;;;;;;12.27;10.98;;;7.60;80.70;;;;;;5047895;28;20208;-63
2022/03/11 08:55:59;;;;;;;11.40;10.23;;;7.80;81.80;;;;;;5048166;28;20807;-63
2022/03/11 08:58:28;;;;;;;15.02;11.20;;;8.00;80.00;;;;;;5046600;28;20821;-60
2022/03/11 09:00:57;;;;;;;13.68;10.23;;;8.10;79.90;;;;;;5047800;28;20269;-60
2022/03/11 09:03:25;;;;;;;12.48;10.82;;;8.10;78.80;;;;;;5047989;28;20239;-61
2022/03/11 09:05:53;;;;;;;14.50;10.20;;;8.40;80.10;;;;;;5047165;28;20220;-60
2022/03/11 09:08:21;;;;;;;16.85;10.77;;;8.40;79.50;;;;;;5047329;28;20215;-60
2022/03/11 09:10:49;;;;;;;12.10;11.00;;;8.60;78.60;;;;;;5048044;28;20659;-61
2022/03/11 09:13:18;;;;;;;12.68;11.40;;;8.80;78.20;;;;;;5072416;22;20800;-63
2022/03/11 09:15:47;;;;;;;11.40;10.20;;;8.90;77.20;;;;;;5048928;28;20224;-63
2022/03/11 09:18:15;;;;;;;14.25;12.70;;;9.00;77.60;;;;;;5052826;28;20207;-63
2022/03/11 09:20:43;;;;;;;11.38;10.20;;;9.30;77.40;;;;;;5052052;28;20208;-63
2022/03/11 09:23:11;;;;;;;12.15;10.85;;;9.50;76.50;;;;;;5045313;28;20226;-62
2022/03/11 09:25:40;;;;;;;10.90;9.80;;;9.50;75.40;;;;;;5046818;28;20305;-63
2022/03/11 09:28:10;;;;;;;13.20;10.63;;;9.50;76.20;;;;;;5046850;28;20227;-63
2022/03/11 09:30:38;;;;;;;13.98;10.98;;;9.80;76.20;;;;;;5047389;28;20663;-63
2022/03/11 09:33:07;;;;;;;11.30;10.07;;;9.90;74.60;;;;;;5052850;28;20227;-63
2022/03/11 09:35:35;;;;;;;15.88;10.65;;;9.90;74.40;;;;;;5053207;28;20457;-63
2022/03/11 09:38:03;;;;;;;12.40;11.07;;;9.80;75.90;;;;;;5053314;28;20638;-63
2022/03/11 09:40:32;;;;;;;12.48;10.52;;;9.90;76.60;;;;;;5052752;28;20242;-63
2022/03/11 09:43:01;;;;;;;11.50;10.40;;;10.10;77.90;;;;;;5052369;28;20224;-63
2022/03/11 09:45:29;;;;;;;11.15;10.05;;;10.30;74.10;;;;;;5052788;28;20208;-63
2022/03/11 09:47:57;;;;;;;32.58;11.30;;;10.50;73.90;;;;;;5052442;28;20261;-63
2022/03/11 09:50:30;;;;;;;11.73;10.55;;;10.40;72.80;;;;;;5052541;28;20235;-63
2022/03/11 09:52:59;;;;;;;10.57;9.57;;;10.60;73.30;;;;;;5052396;28;20266;-63
2022/03/11 09:55:27;;;;;;;14.95;10.07;;;10.80;74.20;;;;;;5052415;28;20227;-63
2022/03/11 09:57:55;;;;;;;13.88;10.48;;;10.90;71.90;;;;;;5052595;28;20651;-63
2022/03/11 10:00:23;;;;;;;16.75;12.38;;;10.70;71.80;;;;;;5052607;28;20204;-62
2022/03/11 10:02:56;;;;;;;11.82;9.82;;;10.80;71.90;;;;;;5052197;28;20220;-62
2022/03/11 10:05:24;;;;;;;11.73;10.50;;;10.90;71.90;;;;;;5052244;28;20219;-63
2022/03/11 10:08:03;;;;;;;13.05;10.23;;;10.90;71.50;;;;;;5052438;28;20266;-63
2022/03/11 10:10:31;;;;;;;15.48;13.30;;;11.10;70.80;;;;;;5052178;28;20200;-63
2022/03/11 10:13:08;;;;;;;12.35;11.05;;;11.30;70.40;;;;;;5051661;28;20250;-63
2022/03/11 10:15:37;;;;;;;11.02;9.82;;;11.40;70.50;;;;;;5045984;28;20200;-63
2022/03/11 10:18:08;;;;;;;12.77;10.10;;;11.90;71.20;;;;;;5048776;28;20234;-62
2022/03/11 10:20:36;;;;;;;13.32;11.93;;;12.30;70.30;;;;;;5051901;28;20227;-63
2022/03/11 10:23:11;;;;;;;12.68;11.38;;;12.40;70.80;;;;;;5051508;28;20247;-63
2022/03/11 10:25:39;;;;;;;13.23;11.15;;;12.60;69.30;;;;;;5051655;28;20219;-63
2022/03/11 10:28:09;;;;;;;10.75;9.65;;;12.60;67.80;;;;;;5051723;28;20231;-63
2022/03/11 10:30:39;;;;;;;11.30;9.95;;;12.50;67.70;;;;;;5051292;28;20621;-63
2022/03/11 10:33:08;;;;;;;11.93;10.73;;;12.60;69.20;;;;;;5051539;28;20266;-63
2022/03/11 10:35:38;;;;;;;13.43;12.02;;;12.60;67.20;;;;;;5051958;28;20343;-63
2022/03/11 10:38:08;;;;;;;11.23;10.10;;;12.70;67.60;;;;;;5052185;28;20243;-63
2022/03/11 10:40:42;;;;;;;12.77;10.70;;;12.90;67.60;;;;;;5051743;28;20683;-63
2022/03/11 10:43:15;;;;;;;11.90;10.70;;;13.00;67.40;;;;;;5051585;28;20228;-63
2022/03/11 10:45:48;;;;;;;13.20;11.05;;;12.90;67.60;;;;;;5051779;28;20230;-63
2022/03/11 10:48:17;;;;;;;11.13;10.10;;;12.90;67.20;;;;;;5051259;28;20196;-63
2022/03/11 10:50:46;;;;;;;11.73;10.57;;;13.20;67.40;;;;;;5051420;28;20608;-62
2022/03/11 10:53:14;;;;;;;13.35;11.20;;;13.50;66.20;;;;;;5051144;28;20252;-63
2022/03/11 10:55:44;;;;;;;13.70;11.02;;;13.50;65.80;;;;;;5051836;28;20227;-65
2022/03/11 10:58:16;;;;;;;11.75;10.55;;;13.60;67.40;;;;;;5045075;28;20245;-63
2022/03/11 11:00:45;;;;;;;12.43;11.23;;;13.80;66.00;;;;;;5051386;28;20234;-63
2022/03/11 11:03:16;;;;;;;12.35;11.02;;;13.70;65.90;;;;;;5051138;28;20316;-64
2022/03/11 11:05:44;;;;;;;12.45;11.00;;;13.80;65.70;;;;;;5051016;28;20246;-63
2022/03/11 11:08:12;;;;;;;11.75;10.55;;;13.90;66.20;;;;;;5051626;28;20230;-63
2022/03/11 11:10:39;;;;;;;13.93;10.63;;;14.00;65.20;;;;;;5051288;28;20231;-63
2022/03/11 11:13:09;;;;;;;12.80;10.75;;;13.90;64.60;;;;;;5050579;28;20270;-64
2022/03/11 11:15:41;;;;;;;12.30;11.10;;;14.00;64.70;;;;;;5051596;28;20207;-63
2022/03/11 11:18:14;;;;;;;11.48;10.38;;;14.10;64.70;;;;;;5051245;28;20204;-63
2022/03/11 11:20:47;;;;;;;11.88;10.77;;;14.50;64.20;;;;;;5051077;28;20204;-63
2022/03/11 11:23:16;;;;;;;13.07;11.30;;;14.50;65.00;;;;;;5050869;28;20251;-63
2022/03/11 11:25:45;;;;;;;11.65;10.45;;;14.70;64.00;;;;;;5050569;28;20235;-63
2022/03/11 11:28:18;;;;;;;10.73;9.73;;;14.50;63.90;;;;;;5050895;28;20642;-63
2022/03/11 11:30:47;;;;;;;13.35;10.63;;;14.60;64.20;;;;;;5051039;28;20270;-63
2022/03/11 11:33:16;;;;;;;12.38;11.13;;;14.80;63.50;;;;;;5050730;28;20219;-63
2022/03/11 11:35:44;;;;;;;11.27;9.85;;;15.00;63.10;;;;;;5050818;28;20231;-63
2022/03/11 11:38:33;;;;;;;10.93;9.73;;;15.30;64.70;;;;;;5050761;28;20657;-63
2022/03/11 11:41:04;;;;;;;11.23;10.23;;;14.90;62.40;;;;;;5050946;28;20232;-63
2022/03/11 11:43:36;;;;;;;11.05;9.95;;;15.20;63.90;;;;;;5053978;28;20674;-63
2022/03/11 11:46:16;;;;;;;11.77;10.65;;;15.40;61.20;;;;;;5054887;28;20253;-63
2022/03/11 11:49:16;;;;;;;11.25;9.05;;;15.20;61.90;;;;;;5054725;28;20222;-63
2022/03/11 11:51:56;;;;;;;13.07;11.77;;;15.30;60.90;;;;;;5051356;28;20203;-62
2022/03/11 11:54:38;;;;;;;13.40;10.43;;;15.10;62.10;;;;;;5054611;28;20270;-63
2022/03/11 11:57:07;;;;;;;11.70;9.70;;;15.30;62.30;;;;;;5054685;28;20203;-63
2022/03/11 11:59:41;;;;;;;11.60;10.25;;;15.40;61.00;;;;;;5048401;28;20559;-63
2022/03/11 12:02:32;;;;;;;11.90;9.85;;;15.30;60.70;;;;;;5049176;28;20212;-63
2022/03/11 12:05:06;;;;;;;11.55;10.48;;;15.20;60.40;;;;;;5054528;28;20202;-62
2022/03/11 12:07:48;;;;;;;12.88;10.77;;;15.40;61.70;;;;;;5053557;28;20769;-63
2022/03/11 12:10:26;;;;;;;10.52;9.43;;;15.40;61.40;;;;;;5045130;28;20207;-63
2022/03/11 12:13:00;;;;;;;10.52;9.52;;;15.60;60.50;;;;;;5048498;28;20685;-63
2022/03/11 12:15:53;;;;;;;11.65;10.30;;;15.90;60.60;;;;;;5048502;28;20204;-62
2022/03/11 12:18:44;;;;;;;10.68;9.57;;;16.20;59.50;;;;;;5048734;28;20628;-62
2022/03/11 12:21:28;;;;;;;13.35;9.85;;;16.40;60.10;;;;;;5047468;28;20200;-61
2022/03/11 12:24:32;;;;;;;11.20;9.73;;;15.90;60.00;;;;;;5048502;28;20220;-63
2022/03/11 12:27:00;;;;;;;10.82;9.75;;;15.80;60.00;;;;;;5045512;28;20703;-63
2022/03/11 12:29:31;;;;;;;9.27;8.38;;;16.00;59.90;;;;;;5049079;28;20200;-62
2022/03/11 12:32:01;;;;;;;10.55;9.55;;;16.00;60.40;;;;;;5048752;28;20228;-62
2022/03/11 12:34:33;;;;;;;10.20;9.05;;;16.20;59.70;;;;;;5048681;28;20262;-62
2022/03/11 12:37:01;;;;;;;11.00;9.75;;;16.00;59.70;;;;;;5048658;28;20227;-62
2022/03/11 12:39:32;;;;;;;10.30;9.38;;;16.10;59.80;;;;;;5046265;28;20258;-63
2022/03/11 12:42:00;;;;;;;10.68;9.35;;;16.40;60.20;;;;;;5047984;28;20231;-62
2022/03/11 12:44:28;;;;;;;11.07;9.75;;;16.30;60.00;;;;;;5048516;28;20250;-62
2022/03/11 12:46:56;;;;;;;10.20;9.00;;;16.50;59.70;;;;;;5048153;28;20216;-62
2022/03/11 12:49:27;;;;;;;12.95;10.77;;;17.00;59.40;;;;;;5046911;28;20204;-62